USNS Grasp 51 — NADQ — position and weather

sailwx.info

Track history (hours):
 
Tides and Currents Weather Stations Pressure Air Temp Water Temp Dewpoint Dewpoint Depression Visibility Wind Speed Wind Dir Waves Ship Positions

USNS Grasp 51

Last reported at 2017-Nov-16 14:02 UTC. Time now 2017-Nov-18 06:24 UTC.
Position N 32°52' W 079°58'.

Length 78 m.

Type: Other ship. MMSI: 338842000.

Date/timePositionNaut miles runAvg speedWind from/ knotsBaromVisibWave heightAir tempDewpointWater temp
2017-Nov-16 14:02N 32°52' W 079°58'0 0.1
2017-Nov-16 13:56N 32°52' W 079°58'0 0.0
2017-Nov-16 13:26N 32°52' W 079°58'0 0.0
2017-Nov-16 12:59N 32°52' W 079°58'0 0.0
2017-Nov-16 11:29N 32°52' W 079°58'0 0.0
2017-Nov-16 10:59N 32°52' W 079°58'0 0.0
2017-Nov-16 10:29N 32°52' W 079°58'0 0.0
2017-Nov-16 09:59N 32°52' W 079°58'0 0.0
2017-Nov-16 09:29N 32°52' W 079°58'0 0.0
2017-Nov-16 08:59N 32°52' W 079°58'0 0.0
2017-Nov-16 08:29N 32°52' W 079°58'0 0.0
2017-Nov-16 07:56N 32°52' W 079°58'0 0.0
2017-Nov-16 07:29N 32°52' W 079°58'0 0.0
2017-Nov-16 06:59N 32°52' W 079°58'0 0.0
2017-Nov-16 06:29N 32°52' W 079°58'0 0.0
2017-Nov-16 05:59N 32°52' W 079°58'0 0.0
2017-Nov-16 05:29N 32°52' W 079°58'0 0.0
2017-Nov-16 04:59N 32°52' W 079°58'0 0.0
2017-Nov-16 04:29N 32°52' W 079°58'0 0.0
2017-Nov-16 03:56N 32°52' W 079°58'0 0.0
2017-Nov-16 03:29N 32°52' W 079°58'0 0.0
2017-Nov-16 02:59N 32°52' W 079°58'0 0.0
2017-Nov-16 02:29N 32°52' W 079°58'0 0.0
2017-Nov-16 01:59N 32°52' W 079°58'0 0.0
2017-Nov-16 01:29N 32°52' W 079°58'0 0.0
2017-Nov-16 00:59N 32°52' W 079°58'0 0.0
2017-Nov-15 20:47N 32°52' W 079°58'0 0.0
2017-Nov-15 20:29N 32°52' W 079°58'0 0.0
2017-Nov-15 19:59N 32°52' W 079°58'0 0.0
2017-Nov-15 19:29N 32°52' W 079°58'0 0.0
2017-Nov-15 19:00N 32°52' W 079°58'0 0.2
2017-Nov-15 18:30N 32°52' W 079°58'2 3.8
2017-Nov-15 18:00N 32°51' W 079°56'3 6.2
2017-Nov-15 17:30N 32°48' W 079°55'4 7.4
2017-Nov-15 17:00N 32°45' W 079°52'4 7.9
2017-Nov-15 16:30N 32°43' W 079°48'612.6
2017-Nov-15 16:00N 32°40' W 079°41'315 7.5
2017-Nov-13 22:01N 36°51' W 075°52'1 9.6
2017-Nov-13 21:53N 36°52' W 075°53'14 0.6
2017-Nov-12 21:04N 36°55' W 076°10'0 0.0
2017-Nov-12 20:19N 36°55' W 076°10'0 0.0
2017-Nov-12 19:52N 36°55' W 076°10'0 0.0
2017-Nov-12 19:28N 36°55' W 076°10'0 0.0
2017-Nov-12 18:46N 36°55' W 076°10'0 0.0
2017-Nov-12 18:19N 36°55' W 076°10'0 0.0
2017-Nov-12 17:58N 36°55' W 076°10'0 0.0
2017-Nov-12 17:16N 36°55' W 076°10'0 0.0
2017-Nov-12 16:40N 36°55' W 076°10'0 0.0
2017-Nov-12 16:22N 36°55' W 076°10'0 0.0
2017-Nov-12 15:58N 36°55' W 076°10'0 0.0
2017-Nov-12 14:34N 36°55' W 076°10'0 0.1
2017-Nov-12 14:25N 36°55' W 076°10'0 0.0
2017-Nov-12 13:58N 36°55' W 076°10'0 0.0
2017-Nov-12 13:25N 36°55' W 076°10'0 0.0
2017-Nov-12 12:58N 36°55' W 076°10'0 0.0
2017-Nov-12 12:25N 36°55' W 076°10'0 0.0
2017-Nov-11 21:55N 36°55' W 076°10'0 0.0
2017-Nov-11 20:49N 36°55' W 076°10'0 0.0
2017-Nov-11 19:07N 36°55' W 076°10'0 0.0
2017-Nov-11 18:16N 36°55' W 076°10'0 0.0
2017-Nov-11 15:16N 36°55' W 076°10'0 0.0
2017-Nov-11 13:58N 36°55' W 076°10'0 0.0
2017-Nov-11 13:28N 36°55' W 076°10'0 0.0
2017-Nov-11 12:58N 36°55' W 076°10'0 0.0
2017-Nov-11 12:28N 36°55' W 076°10'0 0.0
2017-Nov-11 11:58N 36°55' W 076°10'0 0.0
2017-Nov-11 09:40N 36°55' W 076°10'0 0.0
2017-Nov-11 09:28N 36°55' W 076°10'0 0.0
2017-Nov-11 08:55N 36°55' W 076°10'0 0.0
2017-Nov-11 08:01N 36°55' W 076°10'0 0.0
2017-Nov-11 07:49N 36°55' W 076°10'0 0.0
2017-Nov-11 03:07N 36°55' W 076°10'0 0.0
2017-Nov-11 00:16N 36°55' W 076°10'0 0.0
2017-Nov-10 23:52N 36°55' W 076°10'0 0.0
2017-Nov-10 23:28N 36°55' W 076°10'0 0.0
2017-Nov-10 22:07N 36°55' W 076°10'0 0.0
2017-Nov-10 21:55N 36°55' W 076°10'0 0.0
2017-Nov-10 21:28N 36°55' W 076°10'0 0.0
2017-Nov-10 20:55N 36°55' W 076°10'0 0.0
2017-Nov-10 20:28N 36°55' W 076°10'0 0.0
2017-Nov-10 19:58N 36°55' W 076°10'0 0.0
2017-Nov-10 19:25N 36°55' W 076°10'0 0.0
2017-Nov-10 18:55N 36°55' W 076°10'0 0.0
2017-Nov-10 18:28N 36°55' W 076°10'0 0.0
2017-Nov-10 17:55N 36°55' W 076°10'0 0.0
2017-Nov-10 17:28N 36°55' W 076°10'0 0.0
2017-Nov-10 16:52N 36°55' W 076°10'0 0.0
2017-Nov-10 16:07N 36°55' W 076°10'0 0.0
2017-Nov-10 15:58N 36°55' W 076°10'0 0.0
2017-Nov-10 15:28N 36°55' W 076°10'0 0.0
2017-Nov-10 14:55N 36°55' W 076°10'0 0.0
2017-Nov-10 14:25N 36°55' W 076°10'0 0.0
2017-Nov-10 13:46N 36°55' W 076°10'0 0.0
2017-Nov-10 13:22N 36°55' W 076°10'0 0.0
2017-Nov-10 12:58N 36°55' W 076°10'0 0.0
2017-Nov-10 11:19N 36°55' W 076°10'0 0.0
2017-Nov-10 10:25N 36°55' W 076°10'0 0.0
2017-Nov-10 09:58N 36°55' W 076°10'0 0.0
2017-Nov-10 09:28N 36°55' W 076°10'0 0.0
2017-Nov-10 08:49N 36°55' W 076°10'0 0.0
2017-Nov-10 08:04N 36°55' W 076°10'0 0.0
2017-Nov-10 07:58N 36°55' W 076°10'0 0.0
2017-Nov-10 07:28N 36°55' W 076°10'0 0.0
2017-Nov-10 06:58N 36°55' W 076°10'0 0.0
2017-Nov-10 06:28N 36°55' W 076°10'0 0.0
2017-Nov-10 05:58N 36°55' W 076°10'0 0.0
2017-Nov-10 05:28N 36°55' W 076°10'0 0.0
2017-Nov-10 04:58N 36°55' W 076°10'0 0.0
2017-Nov-10 04:01N 36°55' W 076°10'0 0.0
2017-Nov-10 03:55N 36°55' W 076°10'0 0.0
2017-Nov-10 03:28N 36°55' W 076°10'0 0.0
2017-Nov-10 02:55N 36°55' W 076°10'0 0.0
2017-Nov-10 02:28N 36°55' W 076°10'0 0.0
2017-Nov-10 01:58N 36°55' W 076°10'0 0.0
2017-Nov-10 01:28N 36°55' W 076°10'0 0.0
2017-Nov-10 00:55N 36°55' W 076°10'0 0.0
2017-Nov-10 00:28N 36°55' W 076°10'0 0.0
2017-Nov-09 23:58N 36°55' W 076°10'0 0.0
2017-Nov-09 23:22N 36°55' W 076°10'0 0.0
2017-Nov-09 21:55N 36°55' W 076°10'0 0.0
2017-Nov-09 21:25N 36°55' W 076°10'0 0.0
2017-Nov-09 20:58N 36°55' W 076°10'0 0.0
2017-Nov-09 20:28N 36°55' W 076°10'0 0.0
2017-Nov-09 19:58N 36°55' W 076°10'0 0.0
2017-Nov-09 19:16N 36°55' W 076°10'0 0.0
2017-Nov-09 18:58N 36°55' W 076°10'0 0.0
2017-Nov-09 18:16N 36°55' W 076°10'0 0.0
2017-Nov-09 17:43N 36°55' W 076°10'0 0.0
2017-Nov-09 17:28N 36°55' W 076°10'0 0.0
2017-Nov-09 16:46N 36°55' W 076°10'0 0.0
2017-Nov-09 16:28N 36°55' W 076°10'0 0.0
2017-Nov-09 15:58N 36°55' W 076°10'0 0.0
2017-Nov-09 15:16N 36°55' W 076°10'0 0.0
2017-Nov-09 14:49N 36°55' W 076°10'0 0.0
2017-Nov-09 14:28N 36°55' W 076°10'0 0.0
2017-Nov-09 13:58N 36°55' W 076°10'0 0.0
2017-Nov-09 12:37N 36°55' W 076°10'0 0.0
2017-Nov-09 12:28N 36°55' W 076°10'0 0.0
2017-Nov-08 23:40N 36°55' W 076°10'0 0.0
2017-Nov-08 23:22N 36°55' W 076°10'0 0.0
2017-Nov-08 22:58N 36°55' W 076°10'0 0.0
2017-Nov-08 22:28N 36°55' W 076°10'0 0.0
2017-Nov-08 21:58N 36°55' W 076°10'0 0.0
2017-Nov-08 21:28N 36°55' W 076°10'0 0.0
2017-Nov-08 20:58N 36°55' W 076°10'0 0.0
2017-Nov-08 20:19N 36°55' W 076°10'0 0.0
2017-Nov-08 19:55N 36°55' W 076°10'0 0.0
2017-Nov-08 19:19N 36°55' W 076°10'0 0.0
2017-Nov-08 18:58N 36°55' W 076°10'0 0.0
2017-Nov-08 18:28N 36°55' W 076°10'0 0.0
2017-Nov-08 17:55N 36°55' W 076°10'0 0.0
2017-Nov-08 17:28N 36°55' W 076°10'0 0.0
2017-Nov-08 16:55N 36°55' W 076°10'0 0.0
2017-Nov-08 16:28N 36°55' W 076°10'0 0.0
2017-Nov-08 15:58N 36°55' W 076°10'0 0.0
2017-Nov-08 15:28N 36°55' W 076°10'0 0.0
2017-Nov-08 14:58N 36°55' W 076°10'0 0.0
2017-Nov-08 14:28N 36°55' W 076°10'0 0.0
2017-Nov-08 13:58N 36°55' W 076°10'0 0.0
2017-Nov-08 13:28N 36°55' W 076°10'0 0.0
2017-Nov-08 12:52N 36°55' W 076°10'0 0.0
2017-Nov-08 12:07N 36°55' W 076°10'0 0.0
2017-Nov-08 05:52N 36°55' W 076°10'0 0.0
2017-Nov-08 05:28N 36°55' W 076°10'0 0.0
2017-Nov-08 04:58N 36°55' W 076°10'0 0.0
2017-Nov-08 04:28N 36°55' W 076°10'0 0.0
2017-Nov-08 03:58N 36°55' W 076°10'0 0.0
2017-Nov-08 03:28N 36°55' W 076°10'0 0.0
2017-Nov-08 02:58N 36°55' W 076°10'0 0.0
2017-Nov-08 02:28N 36°55' W 076°10'0 0.0
2017-Nov-08 01:58N 36°55' W 076°10'0 0.0
2017-Nov-08 01:28N 36°55' W 076°10'0 0.0
2017-Nov-08 00:52N 36°55' W 076°10'0 0.0
2017-Nov-08 00:28N 36°55' W 076°10'0 0.0
2017-Nov-07 23:58N 36°55' W 076°10'0 0.0
2017-Nov-07 23:28N 36°55' W 076°10'0 0.0
2017-Nov-07 22:58N 36°55' W 076°10'0 0.0
2017-Nov-07 20:58N 36°55' W 076°10'0 0.0
2017-Nov-07 20:28N 36°55' W 076°10'0 0.0
2017-Nov-07 19:58N 36°55' W 076°10'0 0.0
2017-Nov-07 19:28N 36°55' W 076°10'0 0.0
2017-Nov-07 18:58N 36°55' W 076°10'0 0.0
2017-Nov-07 18:25N 36°55' W 076°10'0 0.0
2017-Nov-07 17:58N 36°55' W 076°10'0 0.0
2017-Nov-07 17:28N 36°55' W 076°10'0 0.0
2017-Nov-07 16:58N 36°55' W 076°10'0 0.0
2017-Nov-07 16:28N 36°55' W 076°10'0 0.0
2017-Nov-07 15:52N 36°55' W 076°10'0 0.0
2017-Nov-07 15:16N 36°55' W 076°10'0 0.0
2017-Nov-07 14:58N 36°55' W 076°10'0 0.0
2017-Nov-07 14:28N 36°55' W 076°10'0 0.0
2017-Nov-07 13:49N 36°55' W 076°10'0 0.0
2017-Nov-07 13:28N 36°55' W 076°10'0 0.0
2017-Nov-07 12:58N 36°55' W 076°10'0 0.0
2017-Nov-07 12:28N 36°55' W 076°10'0 0.0
2017-Nov-06 21:58N 36°55' W 076°10'0 0.0
2017-Nov-06 21:28N 36°55' W 076°10'0 0.0
2017-Nov-06 20:58N 36°55' W 076°10'0 0.0
2017-Nov-06 20:10N 36°55' W 076°10'  
Track history (hours):
 
Tides and Currents Weather Stations Pressure Air Temp Water Temp Dewpoint Dewpoint Depression Visibility Wind Speed Wind Dir Waves Ship Positions

USNS Grasp 51

Last reported at 2017-Nov-16 14:02 UTC. Time now 2017-Nov-18 06:24 UTC.
Position N 32°52' W 079°58'.

Length 78 m.

Type: Other ship. MMSI: 338842000.

Date/timePositionNaut miles runAvg speedWind from/ knotsBaromVisibWave heightAir tempDewpointWater temp
2017-Nov-16 14:02N 32°52' W 079°58'0 0.1
2017-Nov-16 13:56N 32°52' W 079°58'0 0.0
2017-Nov-16 13:26N 32°52' W 079°58'0 0.0
2017-Nov-16 12:59N 32°52' W 079°58'0 0.0
2017-Nov-16 11:29N 32°52' W 079°58'0 0.0
2017-Nov-16 10:59N 32°52' W 079°58'0 0.0
2017-Nov-16 10:29N 32°52' W 079°58'0 0.0
2017-Nov-16 09:59N 32°52' W 079°58'0 0.0
2017-Nov-16 09:29N 32°52' W 079°58'0 0.0
2017-Nov-16 08:59N 32°52' W 079°58'0 0.0
2017-Nov-16 08:29N 32°52' W 079°58'0 0.0
2017-Nov-16 07:56N 32°52' W 079°58'0 0.0
2017-Nov-16 07:29N 32°52' W 079°58'0 0.0
2017-Nov-16 06:59N 32°52' W 079°58'0 0.0
2017-Nov-16 06:29N 32°52' W 079°58'0 0.0
2017-Nov-16 05:59N 32°52' W 079°58'0 0.0
2017-Nov-16 05:29N 32°52' W 079°58'0 0.0
2017-Nov-16 04:59N 32°52' W 079°58'0 0.0
2017-Nov-16 04:29N 32°52' W 079°58'0 0.0
2017-Nov-16 03:56N 32°52' W 079°58'0 0.0
2017-Nov-16 03:29N 32°52' W 079°58'0 0.0
2017-Nov-16 02:59N 32°52' W 079°58'0 0.0
2017-Nov-16 02:29N 32°52' W 079°58'0 0.0
2017-Nov-16 01:59N 32°52' W 079°58'0 0.0
2017-Nov-16 01:29N 32°52' W 079°58'0 0.0
2017-Nov-16 00:59N 32°52' W 079°58'0 0.0
2017-Nov-15 20:47N 32°52' W 079°58'0 0.0
2017-Nov-15 20:29N 32°52' W 079°58'0 0.0
2017-Nov-15 19:59N 32°52' W 079°58'0 0.0
2017-Nov-15 19:29N 32°52' W 079°58'0 0.0
2017-Nov-15 19:00N 32°52' W 079°58'0 0.2
2017-Nov-15 18:30N 32°52' W 079°58'2 3.8
2017-Nov-15 18:00N 32°51' W 079°56'3 6.2
2017-Nov-15 17:30N 32°48' W 079°55'4 7.4
2017-Nov-15 17:00N 32°45' W 079°52'4 7.9
2017-Nov-15 16:30N 32°43' W 079°48'612.6
2017-Nov-15 16:00N 32°40' W 079°41'315 7.5
2017-Nov-13 22:01N 36°51' W 075°52'1 9.6
2017-Nov-13 21:53N 36°52' W 075°53'14 0.6
2017-Nov-12 21:04N 36°55' W 076°10'0 0.0
2017-Nov-12 20:19N 36°55' W 076°10'0 0.0
2017-Nov-12 19:52N 36°55' W 076°10'0 0.0
2017-Nov-12 19:28N 36°55' W 076°10'0 0.0
2017-Nov-12 18:46N 36°55' W 076°10'0 0.0
2017-Nov-12 18:19N 36°55' W 076°10'0 0.0
2017-Nov-12 17:58N 36°55' W 076°10'0 0.0
2017-Nov-12 17:16N 36°55' W 076°10'0 0.0
2017-Nov-12 16:40N 36°55' W 076°10'0 0.0
2017-Nov-12 16:22N 36°55' W 076°10'0 0.0
2017-Nov-12 15:58N 36°55' W 076°10'0 0.0
2017-Nov-12 14:34N 36°55' W 076°10'0 0.1
2017-Nov-12 14:25N 36°55' W 076°10'0 0.0
2017-Nov-12 13:58N 36°55' W 076°10'0 0.0
2017-Nov-12 13:25N 36°55' W 076°10'0 0.0
2017-Nov-12 12:58N 36°55' W 076°10'0 0.0
2017-Nov-12 12:25N 36°55' W 076°10'0 0.0
2017-Nov-11 21:55N 36°55' W 076°10'0 0.0
2017-Nov-11 20:49N 36°55' W 076°10'0 0.0
2017-Nov-11 19:07N 36°55' W 076°10'0 0.0
2017-Nov-11 18:16N 36°55' W 076°10'0 0.0
2017-Nov-11 15:16N 36°55' W 076°10'0 0.0
2017-Nov-11 13:58N 36°55' W 076°10'0 0.0
2017-Nov-11 13:28N 36°55' W 076°10'0 0.0
2017-Nov-11 12:58N 36°55' W 076°10'0 0.0
2017-Nov-11 12:28N 36°55' W 076°10'0 0.0
2017-Nov-11 11:58N 36°55' W 076°10'0 0.0
2017-Nov-11 09:40N 36°55' W 076°10'0 0.0
2017-Nov-11 09:28N 36°55' W 076°10'0 0.0
2017-Nov-11 08:55N 36°55' W 076°10'0 0.0
2017-Nov-11 08:01N 36°55' W 076°10'0 0.0
2017-Nov-11 07:49N 36°55' W 076°10'0 0.0
2017-Nov-11 03:07N 36°55' W 076°10'0 0.0
2017-Nov-11 00:16N 36°55' W 076°10'0 0.0
2017-Nov-10 23:52N 36°55' W 076°10'0 0.0
2017-Nov-10 23:28N 36°55' W 076°10'0 0.0
2017-Nov-10 22:07N 36°55' W 076°10'0 0.0
2017-Nov-10 21:55N 36°55' W 076°10'0 0.0
2017-Nov-10 21:28N 36°55' W 076°10'0 0.0
2017-Nov-10 20:55N 36°55' W 076°10'0 0.0
2017-Nov-10 20:28N 36°55' W 076°10'0 0.0
2017-Nov-10 19:58N 36°55' W 076°10'0 0.0
2017-Nov-10 19:25N 36°55' W 076°10'0 0.0
2017-Nov-10 18:55N 36°55' W 076°10'0 0.0
2017-Nov-10 18:28N 36°55' W 076°10'0 0.0
2017-Nov-10 17:55N 36°55' W 076°10'0 0.0
2017-Nov-10 17:28N 36°55' W 076°10'0 0.0
2017-Nov-10 16:52N 36°55' W 076°10'0 0.0
2017-Nov-10 16:07N 36°55' W 076°10'0 0.0
2017-Nov-10 15:58N 36°55' W 076°10'0 0.0
2017-Nov-10 15:28N 36°55' W 076°10'0 0.0
2017-Nov-10 14:55N 36°55' W 076°10'0 0.0
2017-Nov-10 14:25N 36°55' W 076°10'0 0.0
2017-Nov-10 13:46N 36°55' W 076°10'0 0.0
2017-Nov-10 13:22N 36°55' W 076°10'0 0.0
2017-Nov-10 12:58N 36°55' W 076°10'0 0.0
2017-Nov-10 11:19N 36°55' W 076°10'0 0.0
2017-Nov-10 10:25N 36°55' W 076°10'0 0.0
2017-Nov-10 09:58N 36°55' W 076°10'0 0.0
2017-Nov-10 09:28N 36°55' W 076°10'0 0.0
2017-Nov-10 08:49N 36°55' W 076°10'0 0.0
2017-Nov-10 08:04N 36°55' W 076°10'0 0.0
2017-Nov-10 07:58N 36°55' W 076°10'0 0.0
2017-Nov-10 07:28N 36°55' W 076°10'0 0.0
2017-Nov-10 06:58N 36°55' W 076°10'0 0.0
2017-Nov-10 06:28N 36°55' W 076°10'0 0.0
2017-Nov-10 05:58N 36°55' W 076°10'0 0.0
2017-Nov-10 05:28N 36°55' W 076°10'0 0.0
2017-Nov-10 04:58N 36°55' W 076°10'0 0.0
2017-Nov-10 04:01N 36°55' W 076°10'0 0.0
2017-Nov-10 03:55N 36°55' W 076°10'0 0.0
2017-Nov-10 03:28N 36°55' W 076°10'0 0.0
2017-Nov-10 02:55N 36°55' W 076°10'0 0.0
2017-Nov-10 02:28N 36°55' W 076°10'0 0.0
2017-Nov-10 01:58N 36°55' W 076°10'0 0.0
2017-Nov-10 01:28N 36°55' W 076°10'0 0.0
2017-Nov-10 00:55N 36°55' W 076°10'0 0.0
2017-Nov-10 00:28N 36°55' W 076°10'0 0.0
2017-Nov-09 23:58N 36°55' W 076°10'0 0.0
2017-Nov-09 23:22N 36°55' W 076°10'0 0.0
2017-Nov-09 21:55N 36°55' W 076°10'0 0.0
2017-Nov-09 21:25N 36°55' W 076°10'0 0.0
2017-Nov-09 20:58N 36°55' W 076°10'0 0.0
2017-Nov-09 20:28N 36°55' W 076°10'0 0.0
2017-Nov-09 19:58N 36°55' W 076°10'0 0.0
2017-Nov-09 19:16N 36°55' W 076°10'0 0.0
2017-Nov-09 18:58N 36°55' W 076°10'0 0.0
2017-Nov-09 18:16N 36°55' W 076°10'0 0.0
2017-Nov-09 17:43N 36°55' W 076°10'0 0.0
2017-Nov-09 17:28N 36°55' W 076°10'0 0.0
2017-Nov-09 16:46N 36°55' W 076°10'0 0.0
2017-Nov-09 16:28N 36°55' W 076°10'0 0.0
2017-Nov-09 15:58N 36°55' W 076°10'0 0.0
2017-Nov-09 15:16N 36°55' W 076°10'0 0.0
2017-Nov-09 14:49N 36°55' W 076°10'0 0.0
2017-Nov-09 14:28N 36°55' W 076°10'0 0.0
2017-Nov-09 13:58N 36°55' W 076°10'0 0.0
2017-Nov-09 12:37N 36°55' W 076°10'0 0.0
2017-Nov-09 12:28N 36°55' W 076°10'0 0.0
2017-Nov-08 23:40N 36°55' W 076°10'0 0.0
2017-Nov-08 23:22N 36°55' W 076°10'0 0.0
2017-Nov-08 22:58N 36°55' W 076°10'0 0.0
2017-Nov-08 22:28N 36°55' W 076°10'0 0.0
2017-Nov-08 21:58N 36°55' W 076°10'0 0.0
2017-Nov-08 21:28N 36°55' W 076°10'0 0.0
2017-Nov-08 20:58N 36°55' W 076°10'0 0.0
2017-Nov-08 20:19N 36°55' W 076°10'0 0.0
2017-Nov-08 19:55N 36°55' W 076°10'0 0.0
2017-Nov-08 19:19N 36°55' W 076°10'0 0.0
2017-Nov-08 18:58N 36°55' W 076°10'0 0.0
2017-Nov-08 18:28N 36°55' W 076°10'0 0.0
2017-Nov-08 17:55N 36°55' W 076°10'0 0.0
2017-Nov-08 17:28N 36°55' W 076°10'0 0.0
2017-Nov-08 16:55N 36°55' W 076°10'0 0.0
2017-Nov-08 16:28N 36°55' W 076°10'0 0.0
2017-Nov-08 15:58N 36°55' W 076°10'0 0.0
2017-Nov-08 15:28N 36°55' W 076°10'0 0.0
2017-Nov-08 14:58N 36°55' W 076°10'0 0.0
2017-Nov-08 14:28N 36°55' W 076°10'0 0.0
2017-Nov-08 13:58N 36°55' W 076°10'0 0.0
2017-Nov-08 13:28N 36°55' W 076°10'0 0.0
2017-Nov-08 12:52N 36°55' W 076°10'0 0.0
2017-Nov-08 12:07N 36°55' W 076°10'0 0.0
2017-Nov-08 05:52N 36°55' W 076°10'0 0.0
2017-Nov-08 05:28N 36°55' W 076°10'0 0.0
2017-Nov-08 04:58N 36°55' W 076°10'0 0.0
2017-Nov-08 04:28N 36°55' W 076°10'0 0.0
2017-Nov-08 03:58N 36°55' W 076°10'0 0.0
2017-Nov-08 03:28N 36°55' W 076°10'0 0.0
2017-Nov-08 02:58N 36°55' W 076°10'0 0.0
2017-Nov-08 02:28N 36°55' W 076°10'0 0.0
2017-Nov-08 01:58N 36°55' W 076°10'0 0.0
2017-Nov-08 01:28N 36°55' W 076°10'0 0.0
2017-Nov-08 00:52N 36°55' W 076°10'0 0.0
2017-Nov-08 00:28N 36°55' W 076°10'0 0.0
2017-Nov-07 23:58N 36°55' W 076°10'0 0.0
2017-Nov-07 23:28N 36°55' W 076°10'0 0.0
2017-Nov-07 22:58N 36°55' W 076°10'0 0.0
2017-Nov-07 20:58N 36°55' W 076°10'0 0.0
2017-Nov-07 20:28N 36°55' W 076°10'0 0.0
2017-Nov-07 19:58N 36°55' W 076°10'0 0.0
2017-Nov-07 19:28N 36°55' W 076°10'0 0.0
2017-Nov-07 18:58N 36°55' W 076°10'0 0.0
2017-Nov-07 18:25N 36°55' W 076°10'0 0.0
2017-Nov-07 17:58N 36°55' W 076°10'0 0.0
2017-Nov-07 17:28N 36°55' W 076°10'0 0.0
2017-Nov-07 16:58N 36°55' W 076°10'0 0.0
2017-Nov-07 16:28N 36°55' W 076°10'0 0.0
2017-Nov-07 15:52N 36°55' W 076°10'0 0.0
2017-Nov-07 15:16N 36°55' W 076°10'0 0.0
2017-Nov-07 14:58N 36°55' W 076°10'0 0.0
2017-Nov-07 14:28N 36°55' W 076°10'0 0.0
2017-Nov-07 13:49N 36°55' W 076°10'0 0.0
2017-Nov-07 13:28N 36°55' W 076°10'0 0.0
2017-Nov-07 12:58N 36°55' W 076°10'0 0.0
2017-Nov-07 12:28N 36°55' W 076°10'0 0.0
2017-Nov-06 21:58N 36°55' W 076°10'0 0.0
2017-Nov-06 21:28N 36°55' W 076°10'0 0.0
2017-Nov-06 20:58N 36°55' W 076°10'0 0.0
2017-Nov-06 20:10N 36°55' W 076°10'  

Dump ship's entire track history